sensor_id;sensor_type;location;lat;lon;timestamp;P1;durP1;ratioP1;P2;durP2;ratioP2
4365;SDS011;2196;47.422;9.656;2023-07-29T00:00:44;3.73;;;3.50;;
4365;SDS011;2196;47.422;9.656;2023-07-29T00:03:11;3.50;;;3.30;;
4365;SDS011;2196;47.422;9.656;2023-07-29T00:05:38;3.93;;;3.57;;
4365;SDS011;2196;47.422;9.656;2023-07-29T00:08:05;4.53;;;3.27;;
4365;SDS011;2196;47.422;9.656;2023-07-29T00:10:36;4.10;;;3.73;;
4365;SDS011;2196;47.422;9.656;2023-07-29T00:13:03;3.90;;;3.60;;
4365;SDS011;2196;47.422;9.656;2023-07-29T00:15:30;3.70;;;3.50;;
4365;SDS011;2196;47.422;9.656;2023-07-29T00:17:57;4.70;;;4.00;;
4365;SDS011;2196;47.422;9.656;2023-07-29T00:20:24;3.40;;;3.20;;
4365;SDS011;2196;47.422;9.656;2023-07-29T00:22:51;2.90;;;2.70;;
4365;SDS011;2196;47.422;9.656;2023-07-29T00:25:19;2.83;;;2.63;;
4365;SDS011;2196;47.422;9.656;2023-07-29T00:27:51;5.43;;;4.03;;
4365;SDS011;2196;47.422;9.656;2023-07-29T00:30:18;3.50;;;3.20;;
4365;SDS011;2196;47.422;9.656;2023-07-29T00:32:48;2.70;;;2.60;;
4365;SDS011;2196;47.422;9.656;2023-07-29T00:35:15;3.17;;;2.80;;
4365;SDS011;2196;47.422;9.656;2023-07-29T00:37:42;2.70;;;2.60;;
4365;SDS011;2196;47.422;9.656;2023-07-29T00:40:13;3.40;;;2.93;;
4365;SDS011;2196;47.422;9.656;2023-07-29T00:42:42;2.30;;;2.20;;
4365;SDS011;2196;47.422;9.656;2023-07-29T00:45:10;2.87;;;2.67;;
4365;SDS011;2196;47.422;9.656;2023-07-29T00:47:37;2.97;;;2.77;;
4365;SDS011;2196;47.422;9.656;2023-07-29T00:50:05;3.23;;;3.03;;
4365;SDS011;2196;47.422;9.656;2023-07-29T00:52:35;3.07;;;2.77;;
4365;SDS011;2196;47.422;9.656;2023-07-29T00:55:02;3.30;;;3.00;;
4365;SDS011;2196;47.422;9.656;2023-07-29T00:57:30;3.30;;;2.77;;
4365;SDS011;2196;47.422;9.656;2023-07-29T00:59:57;2.87;;;2.77;;
4365;SDS011;2196;47.422;9.656;2023-07-29T01:02:26;2.63;;;2.43;;
4365;SDS011;2196;47.422;9.656;2023-07-29T01:04:55;2.97;;;2.77;;
4365;SDS011;2196;47.422;9.656;2023-07-29T01:07:27;2.37;;;2.27;;
4365;SDS011;2196;47.422;9.656;2023-07-29T01:10:00;3.47;;;3.17;;
4365;SDS011;2196;47.422;9.656;2023-07-29T01:12:33;2.40;;;2.30;;
4365;SDS011;2196;47.422;9.656;2023-07-29T01:15:05;2.20;;;2.10;;
4365;SDS011;2196;47.422;9.656;2023-07-29T01:17:40;3.70;;;2.77;;
4365;SDS011;2196;47.422;9.656;2023-07-29T01:20:16;2.97;;;2.77;;
4365;SDS011;2196;47.422;9.656;2023-07-29T01:22:48;2.40;;;2.30;;
4365;SDS011;2196;47.422;9.656;2023-07-29T01:25:17;2.30;;;2.20;;
4365;SDS011;2196;47.422;9.656;2023-07-29T01:27:45;4.63;;;3.03;;
4365;SDS011;2196;47.422;9.656;2023-07-29T01:30:16;2.53;;;2.13;;
4365;SDS011;2196;47.422;9.656;2023-07-29T01:32:46;2.07;;;1.97;;
4365;SDS011;2196;47.422;9.656;2023-07-29T01:35:22;2.67;;;2.07;;
4365;SDS011;2196;47.422;9.656;2023-07-29T01:37:52;2.87;;;2.13;;
4365;SDS011;2196;47.422;9.656;2023-07-29T01:40:23;5.20;;;2.50;;
4365;SDS011;2196;47.422;9.656;2023-07-29T01:42:54;2.60;;;2.40;;
4365;SDS011;2196;47.422;9.656;2023-07-29T01:45:22;4.30;;;2.77;;
4365;SDS011;2196;47.422;9.656;2023-07-29T01:47:50;2.67;;;2.00;;
4365;SDS011;2196;47.422;9.656;2023-07-29T01:50:17;2.30;;;2.20;;
4365;SDS011;2196;47.422;9.656;2023-07-29T01:52:44;2.17;;;2.03;;
4365;SDS011;2196;47.422;9.656;2023-07-29T01:55:11;2.47;;;2.37;;
4365;SDS011;2196;47.422;9.656;2023-07-29T01:57:39;2.60;;;2.40;;
4365;SDS011;2196;47.422;9.656;2023-07-29T02:00:07;3.57;;;3.27;;
4365;SDS011;2196;47.422;9.656;2023-07-29T02:02:35;2.80;;;2.70;;
4365;SDS011;2196;47.422;9.656;2023-07-29T02:05:02;3.00;;;2.90;;
4365;SDS011;2196;47.422;9.656;2023-07-29T02:07:29;3.53;;;3.23;;
4365;SDS011;2196;47.422;9.656;2023-07-29T02:09:56;4.23;;;2.60;;
4365;SDS011;2196;47.422;9.656;2023-07-29T02:12:23;2.87;;;2.77;;
4365;SDS011;2196;47.422;9.656;2023-07-29T02:14:52;2.73;;;2.63;;
4365;SDS011;2196;47.422;9.656;2023-07-29T02:17:18;3.37;;;3.07;;
4365;SDS011;2196;47.422;9.656;2023-07-29T02:19:46;3.33;;;3.13;;
4365;SDS011;2196;47.422;9.656;2023-07-29T02:22:13;4.10;;;3.40;;
4365;SDS011;2196;47.422;9.656;2023-07-29T02:24:41;4.33;;;3.93;;
4365;SDS011;2196;47.422;9.656;2023-07-29T02:27:08;3.77;;;3.57;;
4365;SDS011;2196;47.422;9.656;2023-07-29T02:29:35;3.73;;;3.53;;
4365;SDS011;2196;47.422;9.656;2023-07-29T02:32:04;3.27;;;2.93;;
4365;SDS011;2196;47.422;9.656;2023-07-29T02:34:31;3.83;;;3.53;;
4365;SDS011;2196;47.422;9.656;2023-07-29T02:36:58;4.30;;;4.07;;
4365;SDS011;2196;47.422;9.656;2023-07-29T02:39:25;4.03;;;3.83;;
4365;SDS011;2196;47.422;9.656;2023-07-29T02:41:52;5.53;;;3.57;;
4365;SDS011;2196;47.422;9.656;2023-07-29T02:44:20;3.80;;;3.60;;
4365;SDS011;2196;47.422;9.656;2023-07-29T02:46:47;3.70;;;3.50;;
4365;SDS011;2196;47.422;9.656;2023-07-29T02:49:15;4.10;;;3.80;;
4365;SDS011;2196;47.422;9.656;2023-07-29T02:51:42;3.03;;;2.83;;
4365;SDS011;2196;47.422;9.656;2023-07-29T02:54:09;3.37;;;3.10;;
4365;SDS011;2196;47.422;9.656;2023-07-29T02:56:36;2.47;;;2.37;;
4365;SDS011;2196;47.422;9.656;2023-07-29T02:59:03;2.63;;;2.50;;
4365;SDS011;2196;47.422;9.656;2023-07-29T03:01:30;4.33;;;2.53;;
4365;SDS011;2196;47.422;9.656;2023-07-29T03:03:57;2.53;;;2.43;;
4365;SDS011;2196;47.422;9.656;2023-07-29T03:06:25;3.43;;;3.13;;
4365;SDS011;2196;47.422;9.656;2023-07-29T03:08:52;2.53;;;2.43;;
4365;SDS011;2196;47.422;9.656;2023-07-29T03:11:19;3.67;;;2.37;;
4365;SDS011;2196;47.422;9.656;2023-07-29T03:13:46;2.33;;;2.13;;
4365;SDS011;2196;47.422;9.656;2023-07-29T03:16:13;4.00;;;2.97;;
4365;SDS011;2196;47.422;9.656;2023-07-29T03:18:42;3.60;;;2.43;;
4365;SDS011;2196;47.422;9.656;2023-07-29T03:21:10;2.73;;;2.50;;
4365;SDS011;2196;47.422;9.656;2023-07-29T03:23:39;3.33;;;3.13;;
4365;SDS011;2196;47.422;9.656;2023-07-29T03:26:06;2.50;;;2.40;;
4365;SDS011;2196;47.422;9.656;2023-07-29T03:28:36;2.50;;;2.30;;
4365;SDS011;2196;47.422;9.656;2023-07-29T03:31:04;3.43;;;2.67;;
4365;SDS011;2196;47.422;9.656;2023-07-29T03:33:31;3.13;;;2.83;;
4365;SDS011;2196;47.422;9.656;2023-07-29T03:35:58;3.07;;;2.40;;
4365;SDS011;2196;47.422;9.656;2023-07-29T03:38:25;2.87;;;2.67;;
4365;SDS011;2196;47.422;9.656;2023-07-29T03:40:54;2.47;;;2.27;;
4365;SDS011;2196;47.422;9.656;2023-07-29T03:43:20;2.70;;;2.50;;
4365;SDS011;2196;47.422;9.656;2023-07-29T03:45:47;2.67;;;2.57;;
4365;SDS011;2196;47.422;9.656;2023-07-29T03:48:15;2.90;;;2.63;;
4365;SDS011;2196;47.422;9.656;2023-07-29T03:50:41;3.57;;;3.27;;
4365;SDS011;2196;47.422;9.656;2023-07-29T03:53:08;4.00;;;3.30;;
4365;SDS011;2196;47.422;9.656;2023-07-29T03:55:36;2.50;;;2.30;;
4365;SDS011;2196;47.422;9.656;2023-07-29T03:58:04;2.33;;;2.13;;
4365;SDS011;2196;47.422;9.656;2023-07-29T04:00:31;2.53;;;2.33;;
4365;SDS011;2196;47.422;9.656;2023-07-29T04:02:58;2.50;;;2.30;;
4365;SDS011;2196;47.422;9.656;2023-07-29T04:05:25;2.97;;;2.87;;
4365;SDS011;2196;47.422;9.656;2023-07-29T04:07:53;2.00;;;1.90;;
4365;SDS011;2196;47.422;9.656;2023-07-29T04:10:20;2.33;;;2.23;;
4365;SDS011;2196;47.422;9.656;2023-07-29T04:12:47;2.43;;;2.20;;
4365;SDS011;2196;47.422;9.656;2023-07-29T04:15:16;2.53;;;2.40;;
4365;SDS011;2196;47.422;9.656;2023-07-29T04:17:43;2.83;;;2.73;;
4365;SDS011;2196;47.422;9.656;2023-07-29T04:20:10;2.60;;;2.50;;
4365;SDS011;2196;47.422;9.656;2023-07-29T04:22:37;3.90;;;3.63;;
4365;SDS011;2196;47.422;9.656;2023-07-29T04:25:05;3.57;;;3.33;;
4365;SDS011;2196;47.422;9.656;2023-07-29T04:27:32;3.03;;;2.60;;
4365;SDS011;2196;47.422;9.656;2023-07-29T04:29:59;2.70;;;2.60;;
4365;SDS011;2196;47.422;9.656;2023-07-29T04:32:28;2.80;;;2.60;;
4365;SDS011;2196;47.422;9.656;2023-07-29T04:34:55;3.17;;;2.90;;
4365;SDS011;2196;47.422;9.656;2023-07-29T04:37:21;3.03;;;2.93;;
4365;SDS011;2196;47.422;9.656;2023-07-29T04:39:48;3.23;;;2.90;;
4365;SDS011;2196;47.422;9.656;2023-07-29T04:42:15;4.00;;;3.33;;
4365;SDS011;2196;47.422;9.656;2023-07-29T04:44:42;4.37;;;4.10;;
4365;SDS011;2196;47.422;9.656;2023-07-29T04:47:09;3.37;;;3.07;;
4365;SDS011;2196;47.422;9.656;2023-07-29T04:49:37;3.97;;;3.63;;
4365;SDS011;2196;47.422;9.656;2023-07-29T04:52:05;3.97;;;3.67;;
4365;SDS011;2196;47.422;9.656;2023-07-29T04:54:35;4.17;;;3.87;;
4365;SDS011;2196;47.422;9.656;2023-07-29T04:57:02;3.40;;;3.20;;
4365;SDS011;2196;47.422;9.656;2023-07-29T04:59:29;2.63;;;2.50;;
4365;SDS011;2196;47.422;9.656;2023-07-29T05:01:56;3.73;;;3.43;;
4365;SDS011;2196;47.422;9.656;2023-07-29T05:04:23;4.33;;;3.93;;
4365;SDS011;2196;47.422;9.656;2023-07-29T05:06:51;3.47;;;3.27;;
4365;SDS011;2196;47.422;9.656;2023-07-29T05:09:18;2.60;;;2.37;;
4365;SDS011;2196;47.422;9.656;2023-07-29T05:11:46;7.40;;;4.27;;
4365;SDS011;2196;47.422;9.656;2023-07-29T05:14:16;4.00;;;3.70;;
4365;SDS011;2196;47.422;9.656;2023-07-29T05:16:44;4.03;;;3.67;;
4365;SDS011;2196;47.422;9.656;2023-07-29T05:19:11;3.90;;;3.67;;
4365;SDS011;2196;47.422;9.656;2023-07-29T05:21:38;3.80;;;3.43;;
4365;SDS011;2196;47.422;9.656;2023-07-29T05:24:07;3.80;;;3.60;;
4365;SDS011;2196;47.422;9.656;2023-07-29T05:26:34;5.73;;;3.97;;
4365;SDS011;2196;47.422;9.656;2023-07-29T05:29:01;4.63;;;3.97;;
4365;SDS011;2196;47.422;9.656;2023-07-29T05:31:29;3.67;;;3.47;;
4365;SDS011;2196;47.422;9.656;2023-07-29T05:33:56;4.17;;;3.00;;
4365;SDS011;2196;47.422;9.656;2023-07-29T05:36:22;3.33;;;3.13;;
4365;SDS011;2196;47.422;9.656;2023-07-29T05:38:49;3.07;;;2.77;;
4365;SDS011;2196;47.422;9.656;2023-07-29T05:41:19;6.10;;;3.50;;
4365;SDS011;2196;47.422;9.656;2023-07-29T05:43:46;3.20;;;3.03;;
4365;SDS011;2196;47.422;9.656;2023-07-29T05:46:13;2.90;;;2.70;;
4365;SDS011;2196;47.422;9.656;2023-07-29T05:48:40;3.33;;;3.13;;
4365;SDS011;2196;47.422;9.656;2023-07-29T05:51:07;2.90;;;2.70;;
4365;SDS011;2196;47.422;9.656;2023-07-29T05:53:34;3.03;;;2.93;;
4365;SDS011;2196;47.422;9.656;2023-07-29T05:56:01;4.80;;;4.40;;
4365;SDS011;2196;47.422;9.656;2023-07-29T05:58:29;4.23;;;3.83;;
4365;SDS011;2196;47.422;9.656;2023-07-29T06:00:57;3.50;;;3.20;;
4365;SDS011;2196;47.422;9.656;2023-07-29T06:03:24;3.77;;;3.43;;
4365;SDS011;2196;47.422;9.656;2023-07-29T06:05:51;2.90;;;2.77;;
4365;SDS011;2196;47.422;9.656;2023-07-29T06:08:18;5.23;;;3.73;;
4365;SDS011;2196;47.422;9.656;2023-07-29T06:10:45;2.67;;;2.57;;
4365;SDS011;2196;47.422;9.656;2023-07-29T06:13:12;4.53;;;3.20;;
4365;SDS011;2196;47.422;9.656;2023-07-29T06:15:40;3.17;;;2.97;;
4365;SDS011;2196;47.422;9.656;2023-07-29T06:18:07;3.20;;;3.00;;
4365;SDS011;2196;47.422;9.656;2023-07-29T06:20:34;2.53;;;2.43;;
4365;SDS011;2196;47.422;9.656;2023-07-29T06:23:01;2.73;;;2.53;;
4365;SDS011;2196;47.422;9.656;2023-07-29T06:25:28;1.93;;;1.83;;
4365;SDS011;2196;47.422;9.656;2023-07-29T06:27:55;3.33;;;3.03;;
4365;SDS011;2196;47.422;9.656;2023-07-29T06:30:23;2.30;;;2.20;;
4365;SDS011;2196;47.422;9.656;2023-07-29T06:32:52;2.40;;;2.30;;
4365;SDS011;2196;47.422;9.656;2023-07-29T06:35:19;3.43;;;3.23;;
4365;SDS011;2196;47.422;9.656;2023-07-29T06:37:46;3.57;;;3.30;;
4365;SDS011;2196;47.422;9.656;2023-07-29T06:40:13;2.97;;;2.77;;
4365;SDS011;2196;47.422;9.656;2023-07-29T06:42:40;4.47;;;3.03;;
4365;SDS011;2196;47.422;9.656;2023-07-29T06:45:08;3.60;;;3.40;;
4365;SDS011;2196;47.422;9.656;2023-07-29T06:47:35;3.53;;;3.23;;
4365;SDS011;2196;47.422;9.656;2023-07-29T06:50:04;3.13;;;2.90;;
4365;SDS011;2196;47.422;9.656;2023-07-29T06:52:31;2.77;;;2.67;;
4365;SDS011;2196;47.422;9.656;2023-07-29T06:54:58;3.10;;;2.93;;
4365;SDS011;2196;47.422;9.656;2023-07-29T06:57:26;3.10;;;2.90;;
4365;SDS011;2196;47.422;9.656;2023-07-29T06:59:53;3.30;;;3.10;;
4365;SDS011;2196;47.422;9.656;2023-07-29T07:02:20;3.10;;;2.73;;
4365;SDS011;2196;47.422;9.656;2023-07-29T07:04:47;3.10;;;2.57;;
4365;SDS011;2196;47.422;9.656;2023-07-29T07:07:15;3.13;;;3.03;;
4365;SDS011;2196;47.422;9.656;2023-07-29T07:09:42;3.87;;;3.57;;
4365;SDS011;2196;47.422;9.656;2023-07-29T07:12:09;3.87;;;3.00;;
4365;SDS011;2196;47.422;9.656;2023-07-29T07:14:36;2.67;;;2.47;;
4365;SDS011;2196;47.422;9.656;2023-07-29T07:17:06;3.57;;;3.47;;
4365;SDS011;2196;47.422;9.656;2023-07-29T07:19:33;3.20;;;3.00;;
4365;SDS011;2196;47.422;9.656;2023-07-29T07:22:00;3.97;;;3.27;;
4365;SDS011;2196;47.422;9.656;2023-07-29T07:24:28;3.20;;;2.83;;
4365;SDS011;2196;47.422;9.656;2023-07-29T07:26:55;3.73;;;3.53;;
4365;SDS011;2196;47.422;9.656;2023-07-29T07:29:22;3.00;;;2.90;;
4365;SDS011;2196;47.422;9.656;2023-07-29T07:31:50;3.30;;;2.80;;
4365;SDS011;2196;47.422;9.656;2023-07-29T07:34:18;3.10;;;2.90;;
4365;SDS011;2196;47.422;9.656;2023-07-29T07:36:46;3.50;;;3.23;;
4365;SDS011;2196;47.422;9.656;2023-07-29T07:39:13;3.57;;;3.37;;
4365;SDS011;2196;47.422;9.656;2023-07-29T07:41:41;4.03;;;3.67;;
4365;SDS011;2196;47.422;9.656;2023-07-29T07:44:08;5.00;;;3.30;;
4365;SDS011;2196;47.422;9.656;2023-07-29T07:46:36;3.30;;;3.10;;
4365;SDS011;2196;47.422;9.656;2023-07-29T07:49:03;4.10;;;3.80;;
4365;SDS011;2196;47.422;9.656;2023-07-29T07:51:30;3.00;;;2.80;;
4365;SDS011;2196;47.422;9.656;2023-07-29T07:53:57;3.10;;;2.90;;
4365;SDS011;2196;47.422;9.656;2023-07-29T07:56:24;2.80;;;2.70;;
4365;SDS011;2196;47.422;9.656;2023-07-29T07:58:52;3.47;;;3.10;;
4365;SDS011;2196;47.422;9.656;2023-07-29T08:01:19;2.67;;;2.57;;
4365;SDS011;2196;47.422;9.656;2023-07-29T08:03:46;3.57;;;2.73;;
4365;SDS011;2196;47.422;9.656;2023-07-29T08:06:13;3.10;;;2.87;;
4365;SDS011;2196;47.422;9.656;2023-07-29T08:08:41;3.93;;;2.60;;
4365;SDS011;2196;47.422;9.656;2023-07-29T08:11:08;3.50;;;3.30;;
4365;SDS011;2196;47.422;9.656;2023-07-29T08:13:35;2.70;;;2.47;;
4365;SDS011;2196;47.422;9.656;2023-07-29T08:16:03;2.60;;;2.50;;
4365;SDS011;2196;47.422;9.656;2023-07-29T08:18:30;3.10;;;2.60;;
4365;SDS011;2196;47.422;9.656;2023-07-29T08:20:59;3.07;;;2.77;;
4365;SDS011;2196;47.422;9.656;2023-07-29T08:23:28;4.13;;;2.60;;
4365;SDS011;2196;47.422;9.656;2023-07-29T08:25:56;2.78;;;2.53;;
4365;SDS011;2196;47.422;9.656;2023-07-29T08:28:26;3.15;;;3.05;;
4365;SDS011;2196;47.422;9.656;2023-07-29T08:30:54;2.58;;;2.47;;
4365;SDS011;2196;47.422;9.656;2023-07-29T08:33:24;3.88;;;3.00;;
4365;SDS011;2196;47.422;9.656;2023-07-29T08:35:51;2.72;;;2.53;;
4365;SDS011;2196;47.422;9.656;2023-07-29T08:38:18;2.75;;;2.55;;
4365;SDS011;2196;47.422;9.656;2023-07-29T08:40:48;2.60;;;2.42;;
4365;SDS011;2196;47.422;9.656;2023-07-29T08:43:19;3.53;;;2.40;;
4365;SDS011;2196;47.422;9.656;2023-07-29T08:45:48;2.45;;;2.35;;
4365;SDS011;2196;47.422;9.656;2023-07-29T08:48:22;2.45;;;2.25;;
4365;SDS011;2196;47.422;9.656;2023-07-29T08:50:55;3.15;;;2.92;;
4365;SDS011;2196;47.422;9.656;2023-07-29T08:53:23;2.65;;;2.55;;
4365;SDS011;2196;47.422;9.656;2023-07-29T08:55:50;2.95;;;2.75;;
4365;SDS011;2196;47.422;9.656;2023-07-29T08:58:18;3.05;;;2.85;;
4365;SDS011;2196;47.422;9.656;2023-07-29T09:00:46;5.35;;;2.90;;
4365;SDS011;2196;47.422;9.656;2023-07-29T09:03:14;2.60;;;2.28;;
4365;SDS011;2196;47.422;9.656;2023-07-29T09:05:43;3.15;;;2.50;;
4365;SDS011;2196;47.422;9.656;2023-07-29T09:08:10;2.50;;;2.13;;
4365;SDS011;2196;47.422;9.656;2023-07-29T09:10:37;2.78;;;2.22;;
4365;SDS011;2196;47.422;9.656;2023-07-29T09:13:05;4.72;;;2.92;;
4365;SDS011;2196;47.422;9.656;2023-07-29T09:15:33;2.87;;;2.67;;
4365;SDS011;2196;47.422;9.656;2023-07-29T09:18:08;2.60;;;2.50;;
4365;SDS011;2196;47.422;9.656;2023-07-29T09:20:36;1.98;;;1.88;;
4365;SDS011;2196;47.422;9.656;2023-07-29T09:23:06;3.35;;;3.05;;
4365;SDS011;2196;47.422;9.656;2023-07-29T09:25:35;2.60;;;2.50;;
4365;SDS011;2196;47.422;9.656;2023-07-29T09:28:07;2.90;;;2.80;;
4365;SDS011;2196;47.422;9.656;2023-07-29T09:30:35;2.83;;;2.17;;
4365;SDS011;2196;47.422;9.656;2023-07-29T09:33:03;2.83;;;2.57;;
4365;SDS011;2196;47.422;9.656;2023-07-29T09:35:30;2.85;;;2.65;;
4365;SDS011;2196;47.422;9.656;2023-07-29T09:38:00;2.40;;;2.30;;
4365;SDS011;2196;47.422;9.656;2023-07-29T09:40:33;1.90;;;1.80;;
4365;SDS011;2196;47.422;9.656;2023-07-29T09:43:01;2.00;;;1.90;;
4365;SDS011;2196;47.422;9.656;2023-07-29T09:45:29;3.00;;;2.80;;
4365;SDS011;2196;47.422;9.656;2023-07-29T09:47:57;2.70;;;2.60;;
4365;SDS011;2196;47.422;9.656;2023-07-29T09:50:24;2.60;;;2.50;;
4365;SDS011;2196;47.422;9.656;2023-07-29T09:52:52;3.28;;;3.08;;
4365;SDS011;2196;47.422;9.656;2023-07-29T09:55:21;2.23;;;2.13;;
4365;SDS011;2196;47.422;9.656;2023-07-29T09:57:54;3.05;;;2.95;;
4365;SDS011;2196;47.422;9.656;2023-07-29T10:00:23;2.22;;;2.13;;
4365;SDS011;2196;47.422;9.656;2023-07-29T10:02:50;2.17;;;2.08;;
4365;SDS011;2196;47.422;9.656;2023-07-29T10:05:19;2.75;;;2.58;;
4365;SDS011;2196;47.422;9.656;2023-07-29T10:07:50;2.07;;;2.00;;
4365;SDS011;2196;47.422;9.656;2023-07-29T10:10:17;2.80;;;2.60;;
4365;SDS011;2196;47.422;9.656;2023-07-29T10:12:45;2.97;;;2.67;;
4365;SDS011;2196;47.422;9.656;2023-07-29T10:15:17;2.47;;;2.22;;
4365;SDS011;2196;47.422;9.656;2023-07-29T10:17:44;2.42;;;1.98;;
4365;SDS011;2196;47.422;9.656;2023-07-29T10:20:12;2.33;;;2.22;;
4365;SDS011;2196;47.422;9.656;2023-07-29T10:22:39;3.88;;;2.72;;
4365;SDS011;2196;47.422;9.656;2023-07-29T10:25:08;3.40;;;3.20;;
4365;SDS011;2196;47.422;9.656;2023-07-29T10:27:42;3.67;;;2.67;;
4365;SDS011;2196;47.422;9.656;2023-07-29T10:30:18;2.92;;;2.75;;
4365;SDS011;2196;47.422;9.656;2023-07-29T10:32:45;2.95;;;2.83;;
4365;SDS011;2196;47.422;9.656;2023-07-29T10:35:16;3.13;;;2.92;;
4365;SDS011;2196;47.422;9.656;2023-07-29T10:37:43;2.97;;;2.50;;
4365;SDS011;2196;47.422;9.656;2023-07-29T10:40:11;4.35;;;3.10;;
4365;SDS011;2196;47.422;9.656;2023-07-29T10:42:38;3.55;;;3.30;;
4365;SDS011;2196;47.422;9.656;2023-07-29T10:45:26;4.55;;;3.03;;
4365;SDS011;2196;47.422;9.656;2023-07-29T10:48:04;3.97;;;3.67;;
4365;SDS011;2196;47.422;9.656;2023-07-29T10:50:33;2.85;;;2.75;;
4365;SDS011;2196;47.422;9.656;2023-07-29T10:53:00;3.08;;;2.80;;
4365;SDS011;2196;47.422;9.656;2023-07-29T10:55:28;3.00;;;2.80;;
4365;SDS011;2196;47.422;9.656;2023-07-29T10:58:06;3.33;;;3.13;;
4365;SDS011;2196;47.422;9.656;2023-07-29T11:00:36;3.20;;;2.92;;
4365;SDS011;2196;47.422;9.656;2023-07-29T11:03:05;3.00;;;2.80;;
4365;SDS011;2196;47.422;9.656;2023-07-29T11:05:46;2.78;;;2.67;;
4365;SDS011;2196;47.422;9.656;2023-07-29T11:08:18;2.90;;;2.80;;
4365;SDS011;2196;47.422;9.656;2023-07-29T11:11:03;2.72;;;2.63;;
4365;SDS011;2196;47.422;9.656;2023-07-29T11:13:32;3.65;;;3.38;;
4365;SDS011;2196;47.422;9.656;2023-07-29T11:16:02;3.10;;;3.00;;
4365;SDS011;2196;47.422;9.656;2023-07-29T11:18:30;2.92;;;2.72;;
4365;SDS011;2196;47.422;9.656;2023-07-29T11:20:58;3.58;;;3.38;;
4365;SDS011;2196;47.422;9.656;2023-07-29T11:23:27;3.67;;;3.47;;
4365;SDS011;2196;47.422;9.656;2023-07-29T11:25:56;3.75;;;3.55;;
4365;SDS011;2196;47.422;9.656;2023-07-29T11:28:23;4.93;;;4.45;;
4365;SDS011;2196;47.422;9.656;2023-07-29T11:30:50;3.80;;;3.60;;
4365;SDS011;2196;47.422;9.656;2023-07-29T11:33:21;4.40;;;4.07;;
4365;SDS011;2196;47.422;9.656;2023-07-29T11:35:49;3.60;;;3.45;;
4365;SDS011;2196;47.422;9.656;2023-07-29T11:38:17;3.85;;;3.60;;
4365;SDS011;2196;47.422;9.656;2023-07-29T11:40:53;3.97;;;3.78;;
4365;SDS011;2196;47.422;9.656;2023-07-29T11:43:21;4.05;;;3.20;;
4365;SDS011;2196;47.422;9.656;2023-07-29T11:45:48;3.90;;;3.70;;
4365;SDS011;2196;47.422;9.656;2023-07-29T11:48:15;3.65;;;3.47;;
4365;SDS011;2196;47.422;9.656;2023-07-29T11:50:44;3.47;;;3.22;;
4365;SDS011;2196;47.422;9.656;2023-07-29T11:53:12;4.15;;;3.95;;
4365;SDS011;2196;47.422;9.656;2023-07-29T11:55:39;4.28;;;4.05;;
4365;SDS011;2196;47.422;9.656;2023-07-29T11:58:06;4.35;;;4.03;;
4365;SDS011;2196;47.422;9.656;2023-07-29T12:00:33;3.78;;;3.58;;
4365;SDS011;2196;47.422;9.656;2023-07-29T12:03:00;3.65;;;3.45;;
4365;SDS011;2196;47.422;9.656;2023-07-29T12:05:27;3.83;;;3.63;;
4365;SDS011;2196;47.422;9.656;2023-07-29T12:07:56;3.72;;;3.42;;
4365;SDS011;2196;47.422;9.656;2023-07-29T12:10:24;3.97;;;3.67;;
4365;SDS011;2196;47.422;9.656;2023-07-29T12:12:51;4.32;;;4.03;;
4365;SDS011;2196;47.422;9.656;2023-07-29T12:15:25;4.38;;;4.07;;
4365;SDS011;2196;47.422;9.656;2023-07-29T12:17:53;4.28;;;3.97;;
4365;SDS011;2196;47.422;9.656;2023-07-29T12:20:22;3.47;;;3.28;;
4365;SDS011;2196;47.422;9.656;2023-07-29T12:22:55;4.45;;;4.15;;
4365;SDS011;2196;47.422;9.656;2023-07-29T12:25:26;4.03;;;3.72;;
4365;SDS011;2196;47.422;9.656;2023-07-29T12:27:53;4.53;;;4.05;;
4365;SDS011;2196;47.422;9.656;2023-07-29T12:30:21;4.43;;;4.18;;
4365;SDS011;2196;47.422;9.656;2023-07-29T12:32:51;3.70;;;3.50;;
4365;SDS011;2196;47.422;9.656;2023-07-29T12:35:18;4.67;;;4.37;;
4365;SDS011;2196;47.422;9.656;2023-07-29T12:37:45;3.87;;;3.77;;
4365;SDS011;2196;47.422;9.656;2023-07-29T12:40:23;4.40;;;4.20;;
4365;SDS011;2196;47.422;9.656;2023-07-29T12:42:53;4.47;;;4.17;;
4365;SDS011;2196;47.422;9.656;2023-07-29T12:45:20;5.93;;;5.43;;
4365;SDS011;2196;47.422;9.656;2023-07-29T12:47:48;5.00;;;4.70;;
4365;SDS011;2196;47.422;9.656;2023-07-29T12:50:15;5.53;;;5.23;;
4365;SDS011;2196;47.422;9.656;2023-07-29T12:52:43;5.60;;;5.10;;
4365;SDS011;2196;47.422;9.656;2023-07-29T12:55:09;5.07;;;4.70;;
4365;SDS011;2196;47.422;9.656;2023-07-29T12:57:41;5.17;;;4.87;;
4365;SDS011;2196;47.422;9.656;2023-07-29T13:00:09;5.60;;;4.17;;
4365;SDS011;2196;47.422;9.656;2023-07-29T13:02:37;5.17;;;4.87;;
4365;SDS011;2196;47.422;9.656;2023-07-29T13:05:04;3.97;;;3.77;;
4365;SDS011;2196;47.422;9.656;2023-07-29T13:07:32;3.80;;;3.60;;
4365;SDS011;2196;47.422;9.656;2023-07-29T13:09:59;4.90;;;4.53;;
4365;SDS011;2196;47.422;9.656;2023-07-29T13:12:26;4.03;;;3.83;;
4365;SDS011;2196;47.422;9.656;2023-07-29T13:14:55;2.73;;;2.63;;
4365;SDS011;2196;47.422;9.656;2023-07-29T13:17:22;2.77;;;2.63;;
4365;SDS011;2196;47.422;9.656;2023-07-29T13:19:49;2.90;;;2.80;;
4365;SDS011;2196;47.422;9.656;2023-07-29T13:22:16;2.50;;;2.30;;
4365;SDS011;2196;47.422;9.656;2023-07-29T13:24:43;3.73;;;3.53;;
4365;SDS011;2196;47.422;9.656;2023-07-29T13:27:11;2.90;;;2.80;;
4365;SDS011;2196;47.422;9.656;2023-07-29T13:29:38;3.03;;;2.90;;
4365;SDS011;2196;47.422;9.656;2023-07-29T13:32:08;3.60;;;3.40;;
4365;SDS011;2196;47.422;9.656;2023-07-29T13:34:35;4.17;;;2.67;;
4365;SDS011;2196;47.422;9.656;2023-07-29T13:37:04;2.47;;;2.37;;
4365;SDS011;2196;47.422;9.656;2023-07-29T13:39:31;2.73;;;2.57;;
4365;SDS011;2196;47.422;9.656;2023-07-29T13:41:58;2.83;;;2.73;;
4365;SDS011;2196;47.422;9.656;2023-07-29T13:44:25;2.33;;;2.23;;
4365;SDS011;2196;47.422;9.656;2023-07-29T13:46:52;2.70;;;2.60;;
4365;SDS011;2196;47.422;9.656;2023-07-29T13:49:19;2.83;;;2.63;;
4365;SDS011;2196;47.422;9.656;2023-07-29T13:51:47;2.87;;;2.77;;
4365;SDS011;2196;47.422;9.656;2023-07-29T13:54:13;2.57;;;2.47;;
4365;SDS011;2196;47.422;9.656;2023-07-29T13:56:40;2.73;;;2.63;;
4365;SDS011;2196;47.422;9.656;2023-07-29T13:59:07;3.17;;;2.97;;
4365;SDS011;2196;47.422;9.656;2023-07-29T14:01:34;2.10;;;2.00;;
4365;SDS011;2196;47.422;9.656;2023-07-29T14:04:01;2.30;;;2.27;;
4365;SDS011;2196;47.422;9.656;2023-07-29T14:06:30;3.00;;;2.83;;
4365;SDS011;2196;47.422;9.656;2023-07-29T14:08:58;7.17;;;3.30;;
4365;SDS011;2196;47.422;9.656;2023-07-29T14:11:25;2.90;;;2.70;;
4365;SDS011;2196;47.422;9.656;2023-07-29T14:13:52;1.87;;;1.77;;
4365;SDS011;2196;47.422;9.656;2023-07-29T14:16:19;3.27;;;2.67;;
4365;SDS011;2196;47.422;9.656;2023-07-29T14:18:46;5.30;;;4.90;;
4365;SDS011;2196;47.422;9.656;2023-07-29T14:21:13;3.53;;;2.87;;
4365;SDS011;2196;47.422;9.656;2023-07-29T14:23:41;3.23;;;3.00;;
4365;SDS011;2196;47.422;9.656;2023-07-29T14:26:09;2.50;;;2.40;;
4365;SDS011;2196;47.422;9.656;2023-07-29T14:28:36;2.80;;;2.60;;
4365;SDS011;2196;47.422;9.656;2023-07-29T14:31:03;3.10;;;2.90;;
4365;SDS011;2196;47.422;9.656;2023-07-29T14:33:30;2.70;;;2.50;;
4365;SDS011;2196;47.422;9.656;2023-07-29T14:35:57;2.53;;;2.33;;
4365;SDS011;2196;47.422;9.656;2023-07-29T14:38:23;2.57;;;2.37;;
4365;SDS011;2196;47.422;9.656;2023-07-29T14:40:52;1.80;;;1.67;;
4365;SDS011;2196;47.422;9.656;2023-07-29T14:43:21;2.53;;;2.27;;
4365;SDS011;2196;47.422;9.656;2023-07-29T14:45:48;1.73;;;1.63;;
4365;SDS011;2196;47.422;9.656;2023-07-29T14:48:15;1.97;;;1.87;;
4365;SDS011;2196;47.422;9.656;2023-07-29T14:50:42;2.40;;;2.30;;
4365;SDS011;2196;47.422;9.656;2023-07-29T14:53:09;3.30;;;2.40;;
4365;SDS011;2196;47.422;9.656;2023-07-29T14:55:37;2.20;;;2.00;;
4365;SDS011;2196;47.422;9.656;2023-07-29T14:58:05;4.90;;;2.90;;
4365;SDS011;2196;47.422;9.656;2023-07-29T15:00:32;1.77;;;1.70;;
4365;SDS011;2196;47.422;9.656;2023-07-29T15:02:59;2.47;;;2.30;;
4365;SDS011;2196;47.422;9.656;2023-07-29T15:05:26;2.63;;;2.40;;
4365;SDS011;2196;47.422;9.656;2023-07-29T15:07:53;2.10;;;1.90;;
4365;SDS011;2196;47.422;9.656;2023-07-29T15:10:20;1.90;;;1.80;;
4365;SDS011;2196;47.422;9.656;2023-07-29T15:12:47;2.50;;;2.33;;
4365;SDS011;2196;47.422;9.656;2023-07-29T15:15:18;1.90;;;1.80;;
4365;SDS011;2196;47.422;9.656;2023-07-29T15:17:45;2.90;;;2.27;;
4365;SDS011;2196;47.422;9.656;2023-07-29T15:20:12;1.67;;;1.67;;